Liscombe, United Kingdom
Current Conditions -  °F | °C
As of 1:50 AM on Sunday 26 Oct 2014 (Local Time) from EGDX Reporting Station
Broken Clouds Broken Clouds  
Wind Chill: 55°   Ceiling: 2300
Heat Index: 55°   Visibility: 6mi
Dew Point: 50°   Wind: 20mph
Humidity: 82%   Direction: 240°WSW
Pressure: 30.12"   Gusts: NA
Location:  51.08°N, 3.6°W
Report Text: EGDX 260050Z AUTO 24017KT 9999 BKN023/// 13/10 Q1020
Loading
Personal Weather Stations






























Interactive Weather Map New forecast layout! Learn more

10-Day Weather Forecast

Advertisements
Track Severe Weather on mobile